Time;durP1;ratioP1;P1;durP2;ratioP2;P2;SDS_P1;SDS_P2;PMS_P1;PMS_P2;Temp;Humidity;BMP_temperature;BMP_pressure;BME280_temperature;BME280_humidity;BME280_pressure;Samples;Min_cycle;Max_cycle;Signal;HPM_P1;HPM_P2
2023/08/13 00:01:00;;;;;;;0.10;0.10;;;;;;;19.48;84.38;97742.69;5032398;28;20064;-72
2023/08/13 00:03:29;;;;;;;0.10;0.10;;;;;;;19.49;84.40;97739.78;5035752;28;20509;-71
2023/08/13 00:05:57;;;;;;;0.10;0.10;;;;;;;19.55;84.41;97743.38;5042888;28;20049;-72
2023/08/13 00:08:24;;;;;;;0.00;0.00;;;;;;;19.60;84.50;97740.75;5033442;28;20048;-73
2023/08/13 00:10:52;;;;;;;0.00;0.00;;;;;;;19.67;84.59;97741.38;5027528;28;20498;-72
2023/08/13 00:13:20;;;;;;;0.03;0.03;;;;;;;19.72;84.40;97739.59;5024365;28;20045;-74
2023/08/13 00:15:47;;;;;;;0.20;0.20;;;;;;;19.77;83.90;97728.81;5028082;28;20681;-72
2023/08/13 00:18:15;;;;;;;0.10;0.10;;;;;;;19.81;84.33;97736.44;5032225;28;20045;-73
2023/08/13 00:20:44;;;;;;;0.10;0.10;;;;;;;19.81;83.78;97725.59;5031628;28;20056;-74
2023/08/13 00:23:12;;;;;;;0.10;0.10;;;;;;;19.82;84.33;97717.22;5033958;28;20103;-73
2023/08/13 00:25:39;;;;;;;0.10;0.10;;;;;;;19.83;84.24;97708.00;5041293;28;20041;-73
2023/08/13 00:28:07;;;;;;;0.10;0.10;;;;;;;19.82;83.93;97709.09;5031738;28;20053;-73
2023/08/13 00:30:35;;;;;;;0.10;0.10;;;;;;;19.74;83.74;97712.22;5032185;28;20061;-73
2023/08/13 00:33:03;;;;;;;0.05;0.05;;;;;;;19.73;83.59;97727.66;5033210;28;20107;-73
2023/08/13 00:35:31;;;;;;;0.00;0.00;;;;;;;19.70;84.28;97725.47;5032592;28;20046;-72
2023/08/13 00:37:59;;;;;;;0.10;0.10;;;;;;;19.70;83.99;97732.78;5039411;28;20055;-72
2023/08/13 00:40:28;;;;;;;0.10;0.10;;;;;;;19.68;84.13;97732.19;5042216;28;20133;-71
2023/08/13 00:42:56;;;;;;;0.10;0.10;;;;;;;19.66;84.15;97731.63;5027888;28;20430;-73
2023/08/13 00:45:24;;;;;;;0.10;0.10;;;;;;;19.59;84.66;97733.69;5033121;28;20091;-73
2023/08/13 00:47:51;;;;;;;0.10;0.10;;;;;;;19.68;84.34;97743.03;5032932;28;20068;-73
2023/08/13 00:50:19;;;;;;;0.03;0.03;;;;;;;19.73;84.24;97743.09;5031240;28;20490;-73
2023/08/13 00:52:47;;;;;;;0.00;0.00;;;;;;;19.71;83.86;97737.94;5032365;28;20084;-72
2023/08/13 00:55:16;;;;;;;0.10;0.10;;;;;;;19.68;84.08;97746.56;5030878;28;20734;-72
2023/08/13 00:57:44;;;;;;;0.10;0.10;;;;;;;19.64;84.23;97755.41;5030709;28;20049;-72
2023/08/13 01:00:13;;;;;;;0.00;0.00;;;;;;;19.39;85.41;97743.13;5032546;28;20045;-72
2023/08/13 01:02:40;;;;;;;0.10;0.10;;;;;;;19.24;86.16;97742.03;5019118;28;20148;-73
2023/08/13 01:05:09;;;;;;;0.10;0.10;;;;;;;19.27;86.27;97745.09;5036932;28;20056;-73
2023/08/13 01:07:42;;;;;;;0.10;0.10;;;;;;;19.38;86.17;97735.25;5031249;28;20038;-72
2023/08/13 01:10:15;;;;;;;0.10;0.10;;;;;;;19.43;85.87;97736.13;5029999;28;20128;-73
2023/08/13 01:12:48;;;;;;;0.10;0.10;;;;;;;19.45;85.59;97733.19;5030153;28;20064;-72
2023/08/13 01:15:18;;;;;;;0.08;0.08;;;;;;;19.45;85.46;97738.59;5031477;28;20109;-72
2023/08/13 01:17:49;;;;;;;0.00;0.00;;;;;;;19.46;84.92;97742.13;5031211;28;20136;-72
2023/08/13 01:20:18;;;;;;;0.10;0.10;;;;;;;19.39;85.48;97736.88;5041039;28;20045;-73
2023/08/13 01:22:48;;;;;;;0.10;0.10;;;;;;;19.35;85.99;97750.09;5095823;22;20068;-72
2023/08/13 01:25:17;;;;;;;0.08;0.08;;;;;;;19.37;85.80;97755.25;5074978;28;20040;-72
2023/08/13 01:27:50;;;;;;;0.00;0.00;;;;;;;19.32;86.17;97749.75;5081243;28;20469;-72
2023/08/13 01:30:21;;;;;;;0.17;0.17;;;;;;;19.32;86.53;97744.34;5078749;28;20163;-72
2023/08/13 01:32:52;;;;;;;0.10;0.10;;;;;;;19.31;86.59;97745.44;5070168;28;20048;-72
2023/08/13 01:35:21;;;;;;;0.10;0.10;;;;;;;19.28;86.81;97741.31;5070678;28;20051;-72
2023/08/13 01:37:50;;;;;;;0.10;0.10;;;;;;;19.28;86.60;97738.63;5063758;28;20053;-71
2023/08/13 01:40:18;;;;;;;0.10;0.10;;;;;;;19.28;86.84;97746.72;5059435;28;20066;-71
2023/08/13 01:42:45;;;;;;;0.03;0.03;;;;;;;19.32;86.43;97737.03;5055902;28;20049;-71
2023/08/13 01:45:13;;;;;;;0.00;0.00;;;;;;;19.38;86.23;97735.25;5069734;28;20091;-71
2023/08/13 01:47:41;;;;;;;0.10;0.10;;;;;;;19.41;86.32;97745.59;5070242;28;20098;-71
2023/08/13 01:50:09;;;;;;;0.10;0.10;;;;;;;19.49;86.14;97750.59;5071635;28;20043;-71
2023/08/13 01:52:37;;;;;;;0.00;0.00;;;;;;;19.44;85.74;97745.88;5056033;28;20564;-71
2023/08/13 01:55:08;;;;;;;0.17;0.17;;;;;;;19.21;86.40;97754.19;5054353;28;20045;-72
2023/08/13 01:57:36;;;;;;;0.40;0.40;;;;;;;19.15;87.07;97746.22;5055334;28;20426;-70
2023/08/13 02:00:06;;;;;;;0.20;0.15;;;;;;;19.04;87.30;97747.94;5059231;28;20136;-72
2023/08/13 02:02:34;;;;;;;0.30;0.30;;;;;;;19.01;87.88;97745.72;5069453;28;20401;-72
2023/08/13 02:05:02;;;;;;;0.03;0.03;;;;;;;18.98;87.88;97738.94;5083436;28;20049;-71
2023/08/13 02:07:30;;;;;;;0.08;0.08;;;;;;;19.01;87.62;97748.44;5068101;28;20413;-71
2023/08/13 02:09:58;;;;;;;0.00;0.00;;;;;;;19.00;87.80;97750.31;5065438;28;20032;-71
2023/08/13 02:12:27;;;;;;;0.10;0.10;;;;;;;19.10;87.10;97746.16;5057284;28;20041;-71
2023/08/13 02:14:54;;;;;;;0.10;0.10;;;;;;;19.07;87.59;97742.06;5067424;28;20064;-71
2023/08/13 02:17:22;;;;;;;0.08;0.08;;;;;;;19.20;87.03;97747.16;5061030;28;20067;-71
2023/08/13 02:19:50;;;;;;;0.00;0.00;;;;;;;19.14;86.70;97748.13;5064097;28;20496;-71
2023/08/13 02:22:18;;;;;;;0.10;0.10;;;;;;;19.08;86.90;97757.22;5069676;28;20041;-70
2023/08/13 02:24:45;;;;;;;0.30;0.30;;;;;;;19.04;87.11;97756.06;5059675;28;20776;-71
2023/08/13 02:27:13;;;;;;;0.05;0.05;;;;;;;18.97;87.39;97755.41;5053868;28;20084;-71
2023/08/13 02:29:42;;;;;;;0.10;0.10;;;;;;;18.98;88.14;97751.63;5065562;28;20063;-72
2023/08/13 02:32:10;;;;;;;0.10;0.10;;;;;;;19.06;87.05;97748.53;5059816;28;20049;-72
2023/08/13 02:34:43;;;;;;;0.10;0.10;;;;;;;19.14;86.87;97758.13;5056393;28;20098;-70
2023/08/13 02:37:11;;;;;;;0.10;0.10;;;;;;;19.02;87.27;97753.59;5061738;28;20047;-71
2023/08/13 02:39:39;;;;;;;0.00;0.00;;;;;;;18.98;87.28;97757.88;5057536;28;20068;-71
2023/08/13 02:42:07;;;;;;;0.10;0.10;;;;;;;19.05;86.62;97758.53;5070866;28;20546;-72
2023/08/13 02:44:34;;;;;;;0.00;0.00;;;;;;;19.02;86.87;97761.72;5063107;28;20087;-71
2023/08/13 02:47:04;;;;;;;0.10;0.10;;;;;;;18.92;87.10;97761.53;5068309;28;20048;-72
2023/08/13 02:49:32;;;;;;;0.00;0.00;;;;;;;18.84;87.81;97753.00;5072430;28;20037;-71
2023/08/13 02:52:00;;;;;;;0.10;0.10;;;;;;;18.90;87.54;97760.94;5071375;28;20037;-73
2023/08/13 02:54:27;;;;;;;0.10;0.10;;;;;;;18.95;87.65;97761.06;5072707;28;20068;-74
2023/08/13 02:56:55;;;;;;;0.20;0.20;;;;;;;18.91;87.38;97770.72;5064816;28;20167;-70
2023/08/13 02:59:23;;;;;;;0.10;0.10;;;;;;;18.90;87.48;97766.38;5072865;28;20032;-70
2023/08/13 03:01:50;;;;;;;0.00;0.00;;;;;;;18.90;87.56;97762.84;5065530;28;20063;-72
2023/08/13 03:04:19;;;;;;;0.10;0.10;;;;;;;18.94;87.45;97766.72;5069159;28;20040;-71
2023/08/13 03:06:47;;;;;;;0.10;0.10;;;;;;;18.89;87.37;97782.88;5073916;28;20067;-71
2023/08/13 03:09:19;;;;;;;0.03;0.03;;;;;;;18.80;87.73;97777.00;5059692;28;20102;-72
2023/08/13 03:11:47;;;;;;;0.10;0.10;;;;;;;18.66;88.24;97771.09;5069832;28;20116;-71
2023/08/13 03:14:15;;;;;;;0.10;0.10;;;;;;;18.66;88.24;97775.66;5069072;28;20051;-72
2023/08/13 03:16:43;;;;;;;0.10;0.10;;;;;;;18.65;88.58;97774.03;5071311;28;20052;-70
2023/08/13 03:19:11;;;;;;;0.10;0.10;;;;;;;18.67;88.24;97772.72;5069243;28;20517;-71
2023/08/13 03:21:42;;;;;;;0.08;0.08;;;;;;;18.64;88.31;97765.09;5056864;28;20041;-71
2023/08/13 03:24:10;;;;;;;0.10;0.10;;;;;;;18.64;88.40;97773.19;5057839;28;20139;-70
2023/08/13 03:26:38;;;;;;;0.10;0.10;;;;;;;18.65;88.35;97771.31;5064178;28;20128;-71
2023/08/13 03:29:06;;;;;;;0.00;0.00;;;;;;;18.64;88.35;97769.69;5072642;28;20185;-71
2023/08/13 03:31:34;;;;;;;0.10;0.10;;;;;;;18.58;88.60;97774.16;5070578;28;20154;-71
2023/08/13 03:34:17;;;;;;;0.10;0.10;;;;;;;18.64;88.00;97769.69;5064533;28;20133;-72
2023/08/13 03:36:46;;;;;;;0.13;0.13;;;;;;;18.61;88.08;97765.56;5072950;28;20086;-72
2023/08/13 03:39:15;;;;;;;0.10;0.10;;;;;;;18.62;88.01;97758.28;5067432;28;20045;-72
2023/08/13 03:41:43;;;;;;;0.20;0.20;;;;;;;18.68;87.99;97762.75;5071111;28;20483;-72
2023/08/13 03:44:12;;;;;;;0.10;0.10;;;;;;;18.74;88.10;97769.88;5075936;28;20124;-72
2023/08/13 03:46:40;;;;;;;0.10;0.10;;;;;;;18.77;87.71;97755.06;5073495;28;20416;-71
2023/08/13 03:49:08;;;;;;;0.10;0.10;;;;;;;18.78;87.36;97759.41;5063428;28;20041;-72
2023/08/13 03:51:35;;;;;;;0.10;0.10;;;;;;;18.80;87.44;97754.53;5070678;28;20148;-71
2023/08/13 03:54:05;;;;;;;0.10;0.10;;;;;;;18.71;87.11;97762.22;5063749;28;20052;-72
2023/08/13 03:56:36;;;;;;;0.10;0.10;;;;;;;18.68;87.64;97763.56;5062559;28;20059;-72
2023/08/13 03:59:04;;;;;;;0.10;0.10;;;;;;;18.69;87.41;97759.75;5070647;28;20602;-71
2023/08/13 04:01:33;;;;;;;0.10;0.10;;;;;;;18.61;87.46;97767.44;5066594;28;20438;-72
2023/08/13 04:04:01;;;;;;;0.10;0.10;;;;;;;18.66;87.38;97775.66;5067013;28;20051;-71
2023/08/13 04:06:30;;;;;;;0.10;0.10;;;;;;;18.74;86.46;97782.56;5063732;28;20068;-71
2023/08/13 04:08:57;;;;;;;0.10;0.10;;;;;;;18.57;86.71;97777.09;5086966;28;20127;-71
2023/08/13 04:11:26;;;;;;;0.10;0.10;;;;;;;18.42;87.35;97774.91;5067974;28;20037;-71
2023/08/13 04:13:54;;;;;;;0.10;0.10;;;;;;;18.41;87.55;97773.25;5071348;28;20083;-73
2023/08/13 04:16:23;;;;;;;0.10;0.10;;;;;;;18.40;86.75;97782.41;5061711;28;20052;-72
2023/08/13 04:18:51;;;;;;;0.10;0.10;;;;;;;18.36;87.12;97783.16;5068263;28;20045;-72
2023/08/13 04:21:21;;;;;;;0.10;0.10;;;;;;;18.32;87.10;97791.72;5062213;28;20045;-72
2023/08/13 04:23:49;;;;;;;0.10;0.10;;;;;;;18.38;86.67;97794.53;5063238;28;20051;-72
2023/08/13 04:26:17;;;;;;;0.20;0.20;;;;;;;18.43;86.57;97789.25;5063703;28;20043;-71
2023/08/13 04:28:47;;;;;;;0.10;0.10;;;;;;;18.38;86.33;97800.75;5062098;28;20132;-71
2023/08/13 04:31:17;;;;;;;0.10;0.10;;;;;;;18.39;86.70;97806.97;5062441;28;20041;-72
2023/08/13 04:33:44;;;;;;;0.10;0.10;;;;;;;18.40;86.81;97800.53;5057162;28;20498;-72
2023/08/13 04:36:14;;;;;;;0.10;0.10;;;;;;;18.32;87.49;97804.44;5065441;28;20106;-71
2023/08/13 04:38:41;;;;;;;0.10;0.10;;;;;;;18.25;87.77;97793.75;5055937;28;20044;-71
2023/08/13 04:41:09;;;;;;;0.10;0.10;;;;;;;18.26;87.93;97798.09;5085713;28;20136;-72
2023/08/13 04:43:41;;;;;;;0.05;0.05;;;;;;;18.37;87.87;97792.91;5057412;28;20485;-72
2023/08/13 04:46:10;;;;;;;0.05;0.05;;;;;;;18.43;87.86;97797.34;5068594;28;20087;-71
2023/08/13 04:48:45;;;;;;;0.05;0.05;;;;;;;18.48;87.71;97798.25;5082761;28;20048;-72
2023/08/13 04:51:20;;;;;;;0.10;0.10;;;;;;;18.53;87.72;97786.72;5061608;28;20060;-72
2023/08/13 04:53:48;;;;;;;0.13;0.13;;;;;;;18.47;87.66;97787.72;5063597;28;20128;-72
2023/08/13 04:56:18;;;;;;;0.10;0.10;;;;;;;18.53;87.65;97786.72;5067980;28;20044;-72
2023/08/13 04:58:46;;;;;;;0.00;0.00;;;;;;;18.57;87.17;97783.34;5058031;28;20083;-71
2023/08/13 05:01:15;;;;;;;0.20;0.20;;;;;;;18.67;86.65;97780.84;5068566;28;20798;-71
2023/08/13 05:03:49;;;;;;;0.38;0.38;;;;;;;18.57;86.89;97777.94;5059824;28;20429;-72
2023/08/13 05:06:18;;;;;;;0.00;0.00;;;;;;;18.44;88.00;97785.47;5056726;28;20124;-73
2023/08/13 05:08:46;;;;;;;0.00;0.00;;;;;;;18.47;87.97;97785.81;5069929;28;20501;-73
2023/08/13 05:11:14;;;;;;;0.13;0.13;;;;;;;18.61;87.44;97784.50;5056396;28;20143;-73
2023/08/13 05:13:41;;;;;;;0.10;0.10;;;;;;;18.69;87.26;97784.09;5069656;28;20093;-72
2023/08/13 05:16:09;;;;;;;0.10;0.10;;;;;;;18.74;87.02;97788.78;5055132;28;20040;-72
2023/08/13 05:18:41;;;;;;;0.10;0.10;;;;;;;18.77;86.82;97790.22;5062129;28;20098;-72
2023/08/13 05:21:08;;;;;;;0.90;0.10;;;;;;;18.85;86.97;97800.63;5084875;28;20056;-72
2023/08/13 05:23:36;;;;;;;0.10;0.10;;;;;;;18.84;86.62;97793.56;5056516;28;20036;-73
2023/08/13 05:26:04;;;;;;;0.10;0.10;;;;;;;18.68;87.33;97803.31;5071022;28;20036;-73
2023/08/13 05:28:33;;;;;;;0.10;0.10;;;;;;;18.66;87.95;97802.72;5069878;28;20493;-72
2023/08/13 05:31:02;;;;;;;0.13;0.13;;;;;;;18.59;88.17;97797.44;5056890;28;20482;-71
2023/08/13 05:33:31;;;;;;;0.10;0.10;;;;;;;18.76;87.27;97808.31;5065687;28;20037;-72
2023/08/13 05:36:00;;;;;;;0.20;0.20;;;;;;;18.81;87.61;97813.81;5065852;28;20131;-72
2023/08/13 05:38:28;;;;;;;0.10;0.10;;;;;;;18.77;88.31;97814.53;5055335;28;20111;-72
2023/08/13 05:40:56;;;;;;;0.10;0.10;;;;;;;18.78;88.01;97814.31;5059426;28;20048;-73
2023/08/13 05:43:23;;;;;;;0.10;0.10;;;;;;;18.79;88.33;97812.44;5057673;28;20037;-72
2023/08/13 05:45:52;;;;;;;0.10;0.10;;;;;;;18.78;88.47;97814.31;5062283;28;20053;-71
2023/08/13 05:48:20;;;;;;;0.10;0.10;;;;;;;18.80;88.87;97816.75;5061865;28;20493;-72
2023/08/13 05:50:47;;;;;;;0.40;0.40;;;;;;;18.67;89.63;97810.59;5059758;28;20528;-71
2023/08/13 05:53:17;;;;;;;0.13;0.13;;;;;;;18.77;89.33;97812.66;5059126;28;20470;-71
2023/08/13 05:55:45;;;;;;;0.10;0.10;;;;;;;18.80;89.04;97816.75;5062613;28;20050;-71
2023/08/13 05:58:12;;;;;;;0.10;0.10;;;;;;;18.91;88.98;97815.88;5061183;28;20052;-71
2023/08/13 06:00:40;;;;;;;0.10;0.10;;;;;;;18.91;88.68;97811.28;5061576;28;20048;-72
2023/08/13 06:03:08;;;;;;;0.10;0.10;;;;;;;18.95;88.92;97807.06;5062789;28;20069;-71
2023/08/13 06:05:38;;;;;;;0.10;0.10;;;;;;;19.02;88.79;97806.88;5063066;28;20040;-71
2023/08/13 06:08:06;;;;;;;0.10;0.10;;;;;;;19.09;88.47;97802.16;5080776;28;20052;-73
2023/08/13 06:10:35;;;;;;;0.10;0.10;;;;;;;19.21;87.83;97796.66;5062681;28;20049;-70
2023/08/13 06:13:04;;;;;;;0.10;0.10;;;;;;;19.24;86.93;97799.72;5061413;28;20415;-71
2023/08/13 06:15:31;;;;;;;0.10;0.10;;;;;;;19.36;86.97;97797.75;5069501;28;20486;-72
2023/08/13 06:17:59;;;;;;;0.10;0.10;;;;;;;19.47;85.96;97797.91;5063132;28;20124;-72
2023/08/13 06:20:27;;;;;;;0.10;0.10;;;;;;;19.52;86.20;97806.16;5057189;28;20052;-72
2023/08/13 06:22:54;;;;;;;0.00;0.00;;;;;;;19.56;86.03;97802.69;5055531;28;20056;-72
2023/08/13 06:25:22;;;;;;;0.10;0.10;;;;;;;19.62;85.69;97809.81;5064423;28;20044;-73
2023/08/13 06:27:51;;;;;;;0.10;0.10;;;;;;;19.62;85.96;97809.81;5065027;28;20037;-72
2023/08/13 06:30:19;;;;;;;0.00;0.00;;;;;;;19.67;85.74;97809.09;5052506;28;20055;-71
2023/08/13 06:32:47;;;;;;;0.00;0.00;;;;;;;19.76;85.47;97810.31;5070113;28;20121;-72
2023/08/13 06:35:15;;;;;;;0.10;0.10;;;;;;;19.77;85.57;97810.06;5069581;28;20098;-72
2023/08/13 06:37:43;;;;;;;0.00;0.00;;;;;;;19.88;85.11;97811.03;5066364;28;20040;-72
2023/08/13 06:40:28;;;;;;;0.10;0.10;;;;;;;19.95;84.87;97800.84;5064685;28;20037;-72
2023/08/13 06:42:57;;;;;;;0.10;0.10;;;;;;;20.06;84.76;97813.47;5067361;28;20040;-72
2023/08/13 06:45:26;;;;;;;0.10;0.10;;;;;;;20.15;84.07;97811.13;5070942;28;20153;-72
2023/08/13 06:47:56;;;;;;;0.05;0.05;;;;;;;20.20;84.02;97800.38;5058435;28;20110;-72
2023/08/13 06:50:24;;;;;;;0.10;0.10;;;;;;;20.23;83.52;97802.59;5062737;28;20508;-73
2023/08/13 06:52:52;;;;;;;0.10;0.10;;;;;;;20.26;83.48;97810.22;5056061;28;20057;-73
2023/08/13 06:55:20;;;;;;;0.10;0.10;;;;;;;20.25;83.55;97800.44;5061334;28;20040;-72
2023/08/13 06:57:47;;;;;;;0.30;0.30;;;;;;;20.29;83.29;97795.34;5066124;28;20396;-73
2023/08/13 07:00:19;;;;;;;0.10;0.10;;;;;;;20.26;83.41;97806.69;5064954;28;20033;-73
2023/08/13 07:02:55;;;;;;;0.10;0.10;;;;;;;20.28;83.08;97799.94;5068699;28;20048;-72
2023/08/13 07:05:23;;;;;;;0.30;0.30;;;;;;;20.33;82.22;97805.44;5066090;28;20405;-73
2023/08/13 07:07:51;;;;;;;0.10;0.10;;;;;;;20.45;81.99;97795.28;5070269;28;20055;-72
2023/08/13 07:10:19;;;;;;;0.10;0.10;;;;;;;20.56;81.30;97801.66;5059552;28;20048;-72
2023/08/13 07:12:46;;;;;;;0.05;0.05;;;;;;;20.67;81.16;97799.88;5070159;28;20040;-72
2023/08/13 07:15:14;;;;;;;0.00;0.00;;;;;;;20.69;80.53;97801.28;5064082;28;20040;-72
2023/08/13 07:17:43;;;;;;;0.10;0.10;;;;;;;20.70;80.38;97800.22;5065171;28;20055;-72
2023/08/13 07:20:13;;;;;;;0.10;0.10;;;;;;;20.63;81.10;97798.78;5066263;28;20101;-72
2023/08/13 07:22:43;;;;;;;0.10;0.10;;;;;;;20.59;81.10;97798.44;5063676;28;20033;-72
2023/08/13 07:25:12;;;;;;;0.10;0.10;;;;;;;20.71;80.85;97803.75;5059489;28;20041;-71
2023/08/13 07:27:41;;;;;;;0.10;0.10;;;;;;;20.90;80.12;97802.31;5067829;28;20082;-71
2023/08/13 07:30:10;;;;;;;0.03;0.03;;;;;;;20.87;80.00;97792.78;5063905;28;20044;-71
2023/08/13 07:32:40;;;;;;;0.00;0.00;;;;;;;21.00;79.27;97801.59;5070906;28;20040;-71
2023/08/13 07:35:11;;;;;;;0.20;0.20;;;;;;;20.92;79.64;97799.34;5064836;28;20043;-72
2023/08/13 07:37:40;;;;;;;0.10;0.10;;;;;;;21.00;79.72;97796.19;5071942;28;20044;-72
2023/08/13 07:40:11;;;;;;;0.10;0.10;;;;;;;21.19;79.22;97801.00;5066008;28;20473;-71
2023/08/13 07:42:38;;;;;;;0.03;0.03;;;;;;;21.37;78.36;97797.13;5069404;28;20059;-71
2023/08/13 07:45:10;;;;;;;0.10;0.10;;;;;;;21.54;77.78;97800.50;5072336;28;20036;-71
2023/08/13 07:47:39;;;;;;;0.20;0.20;;;;;;;21.76;77.52;97802.28;5068524;28;20076;-71
2023/08/13 07:50:08;;;;;;;0.10;0.10;;;;;;;21.94;76.52;97796.44;5062449;28;20098;-70
2023/08/13 07:52:37;;;;;;;0.05;0.05;;;;;;;21.83;75.76;97798.25;5066689;28;20592;-70
2023/08/13 07:55:06;;;;;;;0.05;0.05;;;;;;;21.78;76.13;97805.56;5061334;28;20041;-71
2023/08/13 07:57:34;;;;;;;0.10;0.10;;;;;;;21.81;75.74;97799.59;5067373;28;20064;-70
2023/08/13 08:00:02;;;;;;;0.10;0.10;;;;;;;21.87;75.52;97798.56;5060276;28;20040;-70
2023/08/13 08:02:39;;;;;;;0.10;0.10;;;;;;;21.88;75.57;97808.38;5069524;28;20074;-70
2023/08/13 08:05:07;;;;;;;0.10;0.10;;;;;;;22.07;75.52;97808.78;5069839;28;20542;-71
2023/08/13 08:07:36;;;;;;;0.10;0.10;;;;;;;22.28;73.82;97800.47;5072496;28;20050;-70
2023/08/13 08:10:05;;;;;;;0.10;0.10;;;;;;;22.42;73.01;97810.88;5073164;28;20056;-70
2023/08/13 08:12:32;;;;;;;0.03;0.03;;;;;;;22.30;73.50;97808.38;5069029;28;20124;-70
2023/08/13 08:15:00;;;;;;;0.10;0.10;;;;;;;22.20;73.81;97811.03;5060265;28;20037;-70
2023/08/13 08:17:28;;;;;;;0.10;0.10;;;;;;;22.34;73.19;97810.28;5070741;28;20072;-71
2023/08/13 08:19:55;;;;;;;0.10;0.10;;;;;;;22.51;73.09;97809.28;5071306;28;20106;-71
2023/08/13 08:22:23;;;;;;;0.10;0.10;;;;;;;22.61;72.67;97809.31;5068498;28;20043;-70
2023/08/13 08:24:52;;;;;;;0.10;0.10;;;;;;;22.82;72.62;97802.91;5078457;28;20070;-70
2023/08/13 08:27:20;;;;;;;0.03;0.03;;;;;;;22.88;71.14;97801.81;5068709;28;20045;-70
2023/08/13 08:29:48;;;;;;;0.10;0.10;;;;;;;22.71;72.01;97806.63;5072564;28;20044;-70
2023/08/13 08:32:15;;;;;;;0.10;0.10;;;;;;;22.60;71.92;97796.78;5067648;28;20052;-69
2023/08/13 08:34:44;;;;;;;0.10;0.10;;;;;;;22.52;72.53;97798.13;5065460;28;20033;-70
2023/08/13 08:37:13;;;;;;;0.03;0.03;;;;;;;22.49;71.82;97806.00;5071443;28;20162;-70
2023/08/13 08:39:41;;;;;;;0.00;0.00;;;;;;;22.38;72.19;97796.97;5062747;28;20052;-70
2023/08/13 08:42:12;;;;;;;0.00;0.00;;;;;;;22.46;71.87;97793.75;5064438;28;20514;-70
2023/08/13 08:44:43;;;;;;;0.00;0.00;;;;;;;22.56;72.05;97790.25;5072131;28;20029;-71
2023/08/13 08:47:11;;;;;;;0.00;0.00;;;;;;;22.65;71.43;97792.19;5070950;28;20048;-70
2023/08/13 08:49:38;;;;;;;0.10;0.10;;;;;;;22.84;70.67;97789.81;5068558;28;20048;-70
2023/08/13 08:52:06;;;;;;;0.10;0.10;;;;;;;22.88;69.84;97790.91;5062320;28;20127;-70
2023/08/13 08:54:39;;;;;;;0.10;0.10;;;;;;;23.05;69.49;97793.38;5063933;28;20029;-70
2023/08/13 08:57:06;;;;;;;0.10;0.10;;;;;;;23.01;69.54;97793.13;5065873;28;20378;-70
2023/08/13 08:59:36;;;;;;;0.00;0.00;;;;;;;23.12;69.46;97784.97;5067429;28;20047;-70
2023/08/13 09:02:04;;;;;;;0.10;0.10;;;;;;;23.35;69.22;97774.38;5070292;28;20533;-70
2023/08/13 09:04:32;;;;;;;0.00;0.00;;;;;;;23.37;68.59;97774.09;5067816;28;20033;-70
2023/08/13 09:07:01;;;;;;;0.10;0.10;;;;;;;23.45;68.73;97772.75;5061374;28;20050;-70
2023/08/13 09:09:30;;;;;;;0.00;0.00;;;;;;;23.67;68.08;97760.47;5071361;28;20041;-70
2023/08/13 09:11:58;;;;;;;0.00;0.00;;;;;;;23.65;67.68;97759.94;5063509;28;20083;-71
2023/08/13 09:14:26;;;;;;;0.10;0.10;;;;;;;23.95;65.56;97760.97;5063367;28;20108;-71
2023/08/13 09:16:56;;;;;;;0.00;0.00;;;;;;;24.00;65.41;97752.78;5070648;28;20068;-70
2023/08/13 09:19:26;;;;;;;0.00;0.00;;;;;;;23.68;63.42;97762.09;5063556;28;20041;-70
2023/08/13 09:21:55;;;;;;;0.10;0.10;;;;;;;23.78;63.53;97762.09;5068367;28;20600;-70
2023/08/13 09:24:33;;;;;;;0.00;0.00;;;;;;;23.93;61.02;97749.53;5061712;28;20044;-69
2023/08/13 09:27:02;;;;;;;0.00;0.00;;;;;;;24.05;60.07;97752.78;5071462;28;20155;-70
2023/08/13 09:29:30;;;;;;;0.00;0.00;;;;;;;24.33;59.79;97754.06;5066333;28;20037;-69
2023/08/13 09:32:00;;;;;;;0.10;0.10;;;;;;;24.47;59.56;97750.47;5068307;28;20048;-70
2023/08/13 09:34:29;;;;;;;0.10;0.10;;;;;;;24.43;58.14;97754.00;5071445;28;20042;-70
2023/08/13 09:36:58;;;;;;;0.00;0.00;;;;;;;24.58;58.49;97743.03;5068957;28;20489;-70
2023/08/13 09:39:27;;;;;;;0.10;0.10;;;;;;;24.81;58.01;97744.28;5066717;28;20382;-70
2023/08/13 09:41:56;;;;;;;0.10;0.10;;;;;;;24.91;57.88;97755.13;5055983;28;20052;-70
2023/08/13 09:44:25;;;;;;;0.00;0.00;;;;;;;24.98;57.55;97752.94;5071144;28;20119;-70
2023/08/13 09:46:54;;;;;;;0.00;0.00;;;;;;;24.90;57.85;97756.22;5063643;28;20162;-70
2023/08/13 09:49:23;;;;;;;0.10;0.10;;;;;;;24.84;57.80;97755.44;5066214;28;20119;-70
2023/08/13 09:51:52;;;;;;;0.00;0.00;;;;;;;25.06;55.65;97754.22;5062649;28;20469;-69
2023/08/13 09:54:29;;;;;;;0.10;0.10;;;;;;;25.43;54.44;97754.50;5070417;28;20044;-70
2023/08/13 09:57:02;;;;;;;0.00;0.00;;;;;;;25.70;54.97;97756.75;5066508;28;20516;-70
2023/08/13 09:59:32;;;;;;;0.00;0.00;;;;;;;26.01;54.49;97748.22;5065675;28;20040;-70
2023/08/13 10:02:00;;;;;;;0.05;0.05;;;;;;;26.08;52.13;97740.47;5069569;28;20508;-70
2023/08/13 10:04:29;;;;;;;0.00;0.00;;;;;;;25.94;52.17;97746.66;5068026;28;20041;-70
2023/08/13 10:06:57;;;;;;;0.00;0.00;;;;;;;25.71;53.09;97752.09;5062513;28;20116;-70
2023/08/13 10:09:26;;;;;;;0.00;0.00;;;;;;;25.49;54.81;97744.31;5063072;28;20041;-70
2023/08/13 10:11:54;;;;;;;0.00;0.00;;;;;;;25.81;54.99;97744.59;5058953;28;20056;-70
2023/08/13 10:14:22;;;;;;;0.30;0.30;;;;;;;25.84;53.04;97743.22;5058918;28;20559;-70
2023/08/13 10:16:49;;;;;;;0.10;0.10;;;;;;;26.07;53.39;97745.13;5060926;28;20400;-70
2023/08/13 10:19:19;;;;;;;0.00;0.00;;;;;;;26.37;52.15;97748.66;5060721;28;20115;-70
2023/08/13 10:21:55;;;;;;;0.00;0.00;;;;;;;26.64;51.04;97749.66;5061328;28;20045;-70
2023/08/13 10:24:24;;;;;;;0.00;0.00;;;;;;;26.73;48.09;97733.38;5062507;28;20119;-70
2023/08/13 10:26:53;;;;;;;0.00;0.00;;;;;;;26.84;48.74;97739.53;5070634;28;20110;-70
2023/08/13 10:29:21;;;;;;;0.00;0.00;;;;;;;26.85;48.27;97731.03;5064867;28;20055;-70
2023/08/13 10:31:54;;;;;;;0.00;0.00;;;;;;;26.83;49.20;97735.16;5053945;28;20040;-71
2023/08/13 10:34:40;;;;;;;0.00;0.00;;;;;;;26.35;50.30;97734.47;5068518;28;20102;-70
2023/08/13 10:37:17;;;;;;;0.10;0.10;;;;;;;26.50;49.54;97731.50;5059550;28;20405;-70
2023/08/13 10:39:46;;;;;;;0.00;0.00;;;;;;;26.20;50.93;97730.75;5065384;28;20045;-70
2023/08/13 10:42:48;;;;;;;0.00;0.00;;;;;;;26.50;49.24;97732.31;5054869;28;20048;-70
2023/08/13 10:45:18;;;;;;;0.05;0.05;;;;;;;26.50;45.94;97724.09;5069250;28;20128;-70
2023/08/13 10:47:49;;;;;;;0.00;0.00;;;;;;;26.49;47.35;97722.47;5071598;28;20048;-70
2023/08/13 10:50:22;;;;;;;0.00;0.00;;;;;;;26.40;48.47;97724.25;5068401;28;20048;-71
2023/08/13 10:52:53;;;;;;;0.10;0.10;;;;;;;25.98;49.25;97730.47;5058491;28;20125;-71
2023/08/13 10:55:23;;;;;;;0.10;0.10;;;;;;;26.27;49.17;97723.03;5076181;28;20136;-71
2023/08/13 10:57:51;;;;;;;0.00;0.00;;;;;;;26.52;47.58;97716.41;5071120;28;20050;-70
2023/08/13 11:00:21;;;;;;;0.00;0.00;;;;;;;26.39;47.00;97717.13;5066074;28;20067;-70
2023/08/13 11:02:53;;;;;;;0.03;0.03;;;;;;;26.58;46.99;97728.91;5064869;28;20052;-70
2023/08/13 11:05:22;;;;;;;0.00;0.00;;;;;;;26.80;46.65;97717.38;5057677;28;20045;-70
2023/08/13 11:07:52;;;;;;;0.00;0.00;;;;;;;26.81;47.50;97729.16;5070642;28;20037;-70
2023/08/13 11:10:21;;;;;;;0.10;0.10;;;;;;;26.76;48.23;97721.84;5064222;28;20118;-71
2023/08/13 11:12:49;;;;;;;0.00;0.00;;;;;;;26.75;48.22;97725.69;5066877;28;20045;-70
2023/08/13 11:15:17;;;;;;;0.00;0.00;;;;;;;26.98;47.83;97724.03;5071362;28;20049;-70
2023/08/13 11:17:47;;;;;;;0.00;0.00;;;;;;;26.81;47.96;97721.75;5060917;28;20063;-70
2023/08/13 11:20:18;;;;;;;0.00;0.00;;;;;;;26.57;48.82;97724.56;5065326;28;20101;-71
2023/08/13 11:22:46;;;;;;;0.00;0.00;;;;;;;26.96;48.09;97712.53;5068345;28;20470;-71
2023/08/13 11:25:15;;;;;;;0.00;0.00;;;;;;;27.49;45.52;97702.06;5070121;28;20057;-71
2023/08/13 11:27:43;;;;;;;0.00;0.00;;;;;;;27.80;44.22;97710.59;5075249;28;20043;-71
2023/08/13 11:30:11;;;;;;;0.00;0.00;;;;;;;27.59;44.84;97712.06;5068521;28;20044;-71
2023/08/13 11:32:39;;;;;;;0.00;0.00;;;;;;;27.55;44.66;97709.09;5070499;28;20474;-71
2023/08/13 11:35:09;;;;;;;0.00;0.00;;;;;;;27.48;45.70;97705.91;5075010;28;20506;-70
2023/08/13 11:37:38;;;;;;;0.00;0.00;;;;;;;27.30;46.57;97715.81;5061098;28;20037;-70
2023/08/13 11:40:09;;;;;;;0.00;0.00;;;;;;;26.95;46.90;97711.72;5078719;28;20093;-70
2023/08/13 11:42:43;;;;;;;0.00;0.00;;;;;;;26.46;48.69;97712.13;5085004;28;20123;-70